バクー の空港の天気 - METARとTAF

ヘイダル・アリエフ国際空港(バクー) ( UBBB / BAK ) - アゼルバイジャン バクー
飛行場実況気象(Metar)
観測時間02/20 19:00 +04 (02/20 15:00 UTC)
風向・風速東南東 2m/s
視程10km以上
天気現象
なし
気温5℃
湿度87%
気圧1024hPa
METARUBBB 201500Z 12004KT CAVOK 05/03 Q1024 R88/CLRD// NOSIG
過去の天気等 Google飛行場航空写真 Wunderground天気予報

過去48時間のMETAR

飛行場予報(TAF)
発表時間: 2/20 14:57 +04 (2/20 10:57 UTC)
予報対象時間: 20日16時 +04 ~ 21日16時 +04
風向・風速南 6m/s
視程10km以上
全天の4割程度の雲 雲底高度 610m
20日16時 +04 ~ 20日22時 +04 に一時的に
風向・風速南南西 9m/s
21日0時 +04 ~ 21日2時 +04 に徐々に
風向・風速南 3m/s
視程3,000m
天気現象もや
全天の4割程度の雲 雲底高度 300m
21日2時 +04 ~ 21日9時 +04 に一時的に
視程1,000m
全天の4割程度の雲 雲底高度 90m
21日9時 +04 ~ 21日11時 +04 に徐々に
風向・風速南 9m/s
視程10km以上
天気現象運行に影響にある天気現象が終了
全天の4割程度の雲 雲底高度 460m
TAF UBBB 201057Z 2012/2112 17012KT 9999 SCT020 TX08/2012Z TNM00/2104Z
TEMPO 2012/2018 21018KT
BECMG 2020/2022 18006KT 3000 BR SCT010
TEMPO 2022/2105 1000 SCT003
BECMG 2105/2107 19018KT 9999 NSW SCT015